Haima — 3FMI2 — position and weather

sailwx.info

Track history (hours):
 
Tides and Currents Weather Stations Pressure Air Temp Water Temp Dewpoint Dewpoint Depression Visibility Wind Speed Wind Dir Waves Ship Positions

Haima

Last reported at 2017-Dec-18 06:58 UTC. Time now 2017-Dec-18 07:05 UTC.
Position N 01°15' E 103°56'.

Length 245 m; draft 9.5 m.

Type: Ship (hazmat cat D). MMSI: 370455000.

Date/timePositionNaut miles runAvg speedWind from/ knotsBaromVisibWave heightAir tempDewpointWater temp
2017-Dec-18 06:58N 01°15' E 103°56'0 0.0
2017-Dec-18 06:25N 01°15' E 103°56'0 0.0
2017-Dec-18 05:58N 01°15' E 103°56'0 0.2
2017-Dec-18 05:28N 01°15' E 103°56'0 0.3
2017-Dec-18 05:00N 01°15' E 103°56'0 0.5
2017-Dec-18 04:28N 01°15' E 103°56'1 1.7
2017-Dec-18 04:00N 01°15' E 103°56'2 3.3
2017-Dec-18 03:30N 01°16' E 103°58'3 6.0
2017-Dec-18 02:59N 01°16' E 104°01'4 7.8
2017-Dec-18 02:30N 01°17' E 104°05'4 7.5
2017-Dec-18 01:59N 01°21' E 104°04'5 8.7
2017-Dec-18 01:21N 01°25' E 104°00'2 4.4
2017-Dec-18 01:00N 01°26' E 104°01'  
2017-Dec-15 02:26N 01°26' E 104°01'5 3.8
2017-Dec-15 00:59N 01°21' E 104°03'3 6.0
2017-Dec-15 00:30N 01°20' E 104°05'2 0.2
2017-Dec-14 14:04N 01°19' E 104°07'0 1.7
2017-Dec-14 13:59N 01°19' E 104°07'1 1.6
2017-Dec-14 13:29N 01°18' E 104°08'  
2017-Dec-09 02:10N 21°56' E 119°36'14 9.8
2017-Dec-09 00:42N 22°09' E 119°43'1110.6
2017-Dec-08 23:38N 22°18' E 119°49'411.3
2017-Dec-08 23:14N 22°23' E 119°51'311.2
2017-Dec-08 23:00N 22°25' E 119°52'511.1
2017-Dec-08 22:30N 22°30' E 119°52'611.2
2017-Dec-08 22:00N 22°36' E 119°52'611.3
2017-Dec-08 21:30N 22°42' E 119°52'611.9
2017-Dec-08 21:00N 22°48' E 119°52'712.7
2017-Dec-08 20:30N 22°54' E 119°52'612.5
2017-Dec-08 19:59N 23°01' E 119°52'712.2
2017-Dec-08 19:27N 23°07' E 119°51'612.1
2017-Dec-08 18:57N 23°13' E 119°51'811.5
2017-Dec-08 18:17N 23°21' E 119°52'311.6
2017-Dec-08 18:00N 23°24' E 119°53'611.2
2017-Dec-08 17:30N 23°29' E 119°53'510.6
2017-Dec-08 17:01N 23°34' E 119°55'510.2
2017-Dec-08 16:30N 23°39' E 119°58'  
Track history (hours):
 
Tides and Currents Weather Stations Pressure Air Temp Water Temp Dewpoint Dewpoint Depression Visibility Wind Speed Wind Dir Waves Ship Positions

Haima

Last reported at 2017-Dec-18 06:58 UTC. Time now 2017-Dec-18 07:05 UTC.
Position N 01°15' E 103°56'.

Length 245 m; draft 9.5 m.

Type: Ship (hazmat cat D). MMSI: 370455000.

Date/timePositionNaut miles runAvg speedWind from/ knotsBaromVisibWave heightAir tempDewpointWater temp
2017-Dec-18 06:58N 01°15' E 103°56'0 0.0
2017-Dec-18 06:25N 01°15' E 103°56'0 0.0
2017-Dec-18 05:58N 01°15' E 103°56'0 0.2
2017-Dec-18 05:28N 01°15' E 103°56'0 0.3
2017-Dec-18 05:00N 01°15' E 103°56'0 0.5
2017-Dec-18 04:28N 01°15' E 103°56'1 1.7
2017-Dec-18 04:00N 01°15' E 103°56'2 3.3
2017-Dec-18 03:30N 01°16' E 103°58'3 6.0
2017-Dec-18 02:59N 01°16' E 104°01'4 7.8
2017-Dec-18 02:30N 01°17' E 104°05'4 7.5
2017-Dec-18 01:59N 01°21' E 104°04'5 8.7
2017-Dec-18 01:21N 01°25' E 104°00'2 4.4
2017-Dec-18 01:00N 01°26' E 104°01'  
2017-Dec-15 02:26N 01°26' E 104°01'5 3.8
2017-Dec-15 00:59N 01°21' E 104°03'3 6.0
2017-Dec-15 00:30N 01°20' E 104°05'2 0.2
2017-Dec-14 14:04N 01°19' E 104°07'0 1.7
2017-Dec-14 13:59N 01°19' E 104°07'1 1.6
2017-Dec-14 13:29N 01°18' E 104°08'  
2017-Dec-09 02:10N 21°56' E 119°36'14 9.8
2017-Dec-09 00:42N 22°09' E 119°43'1110.6
2017-Dec-08 23:38N 22°18' E 119°49'411.3
2017-Dec-08 23:14N 22°23' E 119°51'311.2
2017-Dec-08 23:00N 22°25' E 119°52'511.1
2017-Dec-08 22:30N 22°30' E 119°52'611.2
2017-Dec-08 22:00N 22°36' E 119°52'611.3
2017-Dec-08 21:30N 22°42' E 119°52'611.9
2017-Dec-08 21:00N 22°48' E 119°52'712.7
2017-Dec-08 20:30N 22°54' E 119°52'612.5
2017-Dec-08 19:59N 23°01' E 119°52'712.2
2017-Dec-08 19:27N 23°07' E 119°51'612.1
2017-Dec-08 18:57N 23°13' E 119°51'811.5
2017-Dec-08 18:17N 23°21' E 119°52'311.6
2017-Dec-08 18:00N 23°24' E 119°53'611.2
2017-Dec-08 17:30N 23°29' E 119°53'510.6
2017-Dec-08 17:01N 23°34' E 119°55'510.2
2017-Dec-08 16:30N 23°39' E 119°58'  

Dump ship's entire track history